METAR Analyzer

一覧表示

Hello, Guest. (Login)

RJCC/CTS  -  札幌/新千歳

観測日時
2021-08-05 01:00 (UTC) (35分前)
気温
30
露点
25
湿数
5
相対湿度
74.6%
QNH
1006.8hPa
推定現地気圧
1003.8hPa
推定海面気圧
1006.6hPa
体感温度
25.3
(無風時)
28.7
HI
36.2
気温前日比
±0
体感温度前日比
-1.9
HI前日比
+1.1
水平視程
>10000m
鉛直視程
データなし
雲底高度
No dense clouds
V/I
VMC (VFR)
RVR
No RVR data
卓越風
9kt from 170°
ガスト
No gust
降水
報告なし
その他の天気
報告なし
少しの(1/8) 層雲 @ 1000ft AGL / 散在する(3/8) 高積雲 @ 8000ft AGL

RJCC 050100Z 17009KT 9999 FEW010 SCT080 30/25 Q1006 RMK 1ST010 3AC080 A2973

RJCO/OKD  -  札幌/丘珠

観測日時
2021-08-05 01:00 (UTC) (35分前)
気温
31
露点
24
湿数
7
相対湿度
66.4%
QNH
1007.1hPa
推定現地気圧
1006.1hPa
推定海面気圧
1007.0hPa
体感温度
27
(無風時)
28.8
HI
36.5
気温前日比
+2
体感温度前日比
+1.1
HI前日比
+2.9
水平視程
>10000m
鉛直視程
データなし
雲底高度
No dense clouds
V/I
VMC (VFR)
RVR
No RVR data
卓越風
3kt from VRB
ガスト
No gust
降水
報告なし
その他の天気
報告なし
少しの(1/8) 層雲 @ 1000ft AGL / 散在する(4/8) 積雲 @ 5000ft AGL

RJCO 050100Z VRB03KT 9999 FEW010 SCT050 31/24 Q1007 RMK 1ST010 4CU050 A2974

RJCJ  -  千歳基地

観測日時
2021-08-05 01:00 (UTC) (35分前)
気温
30
露点
23
湿数
7
相対湿度
66.2%
QNH
1007.5hPa
推定現地気圧
1004.3hPa
推定海面気圧
1007.4hPa
体感温度
24.8
(無風時)
28
HI
34.1
気温前日比
±0
体感温度前日比
-1.1
HI前日比
±0
水平視程
>10000m
鉛直視程
データなし
雲底高度
No dense clouds
V/I
VMC (VFR)
RVR
No RVR data
卓越風
8kt from 180°
ガスト
No gust
降水
報告なし
その他の天気
報告なし
少しの(1/8) 層雲 @ 1000ft AGL / 散在する(3/8) 高積雲 @ 8000ft AGL

RJCJ 050100Z 18008KT 9999 FEW010 SCT080 30/23 Q1007 RMK 1ST010 3AC080 A2975

RJCW/WKJ  -  稚内

観測日時
2021-08-05 01:00 (UTC) (35分前)
気温
28
露点
23
湿数
5
相対湿度
74.3%
QNH
1004hPa
推定現地気圧
1003.0hPa
推定海面気圧
1003.9hPa
体感温度
22.1
(無風時)
27
HI
31.3
気温前日比
+7
体感温度前日比
+6.4
HI前日比
+9.7
水平視程
>10000m
鉛直視程
データなし
雲底高度
No dense clouds
V/I
VMC (VFR)
RVR
No RVR data
卓越風
14kt from 240°
ガスト
No gust
降水
報告なし
その他の天気
報告なし
少しの雲 @ 1200ft AGL / 散在する雲 @ 1600ft AGL

RJCW 050100Z 24014KT 9999 FEW012 SCT016 28/23 Q1004

RJER/RIS  -  利尻

観測日時
2021-08-05 01:00 (UTC) (35分前)
気温
26
露点
22
湿数
4
相対湿度
78.6%
QNH
1004.4hPa
推定現地気圧
1000.7hPa
推定海面気圧
1004.2hPa
体感温度
19.6
(無風時)
25.7
HI
26.7
気温前日比
+4
体感温度前日比
+4.7
HI前日比
+4.1
水平視程
>10000m
鉛直視程
データなし
雲底高度
1100ft AGL
V/I
VMC (VFR)
RVR
No RVR data
卓越風
14kt from 240°
ガスト
No gust
降水
報告なし
その他の天気
報告なし
少しの雲 @ 1000ft AGL / 隙間のある雲 @ 1100ft AGL

RJER 050100Z 24014KT 9999 FEW010 BKN011 26/22 Q1004 RMK A2966

RJEC/AKJ  -  旭川

観測日時
2021-08-05 01:00 (UTC) (35分前)
気温
29
露点
21
湿数
8
相対湿度
62.1%
QNH
1007hPa
推定現地気圧
982.1hPa
推定海面気圧
1005.6hPa
体感温度
23.7
(無風時)
26.9
HI
31.4
気温前日比
+1
体感温度前日比
+0.9
HI前日比
+1.3
水平視程
>10000m
鉛直視程
データなし
雲底高度
5000ft AGL
V/I
VMC (VFR)
RVR
No RVR data
卓越風
6kt from 200° (160° ~ 250°)
ガスト
No gust
降水
報告なし
その他の天気
報告なし
少しの雲 @ 2000ft AGL / 散在する雲 @ 3000ft AGL / 隙間のある雲 @ 5000ft AGL

RJEC 050100Z 20006KT 160V250 9999 FEW020 SCT030 BKN050 29/21 Q1007

RJCA/AKJ  -  旭川駐屯地

観測日時
2021-08-05 01:00 (UTC) (35分前)
気温
29
露点
22
湿数
7
相対湿度
66%
QNH
1007.1hPa
推定現地気圧
993.4hPa
推定海面気圧
1006.4hPa
体感温度
23.3
(無風時)
27.2
HI
32
気温前日比
+1
体感温度前日比
±0
HI前日比
+0.7
水平視程
>10000m
鉛直視程
データなし
雲底高度
7000ft AGL
V/I
VMC (VFR)
RVR
No RVR data
卓越風
10kt from 240°
ガスト
No gust
降水
報告なし
その他の天気
報告なし
少しの(1/8) 積雲 @ 2500ft AGL / 散在する(4/8) 積雲 @ 5000ft AGL / 隙間のある(6/8) 高積雲 @ 7000ft AGL

RJCA 050100Z 24010KT 9999 FEW025 SCT050 BKN070 29/22 Q1007 RMK 1CU025 4CU050 6AC070 A2974

RJEB/MBE  -  紋別

観測日時
2021-08-05 01:00 (UTC) (35分前)
気温
27
露点
25
湿数
2
相対湿度
88.8%
QNH
1004hPa
推定現地気圧
1001.9hPa
推定海面気圧
1004.0hPa
体感温度
24
(無風時)
27.2
HI
30.9
気温前日比
+3
体感温度前日比
+3.3
HI前日比
+6
水平視程
>10000m
鉛直視程
データなし
雲底高度
5000ft AGL
V/I
VMC (VFR)
RVR
No RVR data
卓越風
3kt from VRB
ガスト
No gust
降水
報告なし
その他の天気
報告なし
少しの雲 @ 2000ft AGL / 隙間のある雲 @ 5000ft AGL

RJEB 050100Z VRB03KT 9999 FEW020 BKN050 27/25 Q1004

RJCM/MMB  -  女満別

観測日時
2021-08-05 01:14 (UTC) (21分前)
気温
33
露点
22
湿数
11
相対湿度
52.5%
QNH
1005.1hPa
推定現地気圧
1001.2hPa
推定海面気圧
1004.9hPa
体感温度
27.9
(無風時)
29.1
HI
37
気温前日比
データなし
体感温度前日比
データなし
HI前日比
データなし
水平視程
>10000m
鉛直視程
データなし
雲底高度
No dense clouds
V/I
VMC (VFR)
RVR
No RVR data
卓越風
3kt from VRB
ガスト
No gust
降水
報告なし
その他の天気
報告なし
少しの(1/8) 積雲 @ 3000ft AGL / 散在する(4/8) 高積雲 @ 11000ft AGL

RJCM 050114Z VRB03KT 9999 FEW030 SCT110 33/22 Q1005 RMK 1CU030 4AC110 A2968

RJCK/KUH  -  釧路

観測日時
2021-08-05 01:00 (UTC) (35分前)
気温
24
露点
21
湿数
3
相対湿度
83.3%
QNH
1006hPa
推定現地気圧
994.7hPa
推定海面気圧
1005.6hPa
体感温度
18.5
(無風時)
24.4
HI
24.6
気温前日比
+1
体感温度前日比
+1
HI前日比
+0.8
水平視程
>10000m
鉛直視程
データなし
雲底高度
No dense clouds
V/I
VMC (VFR)
RVR
No RVR data
卓越風
7kt from 180° (150° ~ 220°)
ガスト
No gust
降水
報告なし
その他の天気
部分的に霧
少しの雲 @ 100ft AGL / 散在する雲 @ 不明な高さ

RJCK 050100Z 18007KT 150V220 9999 PRFG FEW001 SCT/// 24/21 Q1006

RJCB/OBO  -  帯広

観測日時
2021-08-05 01:00 (UTC) (35分前)
気温
30
露点
23
湿数
7
相対湿度
66.2%
QNH
1006hPa
推定現地気圧
988.3hPa
推定海面気圧
1005.0hPa
体感温度
26.3
(無風時)
28
HI
34.1
気温前日比
+1
体感温度前日比
+1.5
HI前日比
+2.1
水平視程
>10000m
鉛直視程
データなし
雲底高度
Unknown
V/I
判定不可
RVR
No RVR data
卓越風
2kt from VRB
ガスト
No gust
降水
報告なし
その他の天気
報告なし
少しの雲 @ 3000ft AGL / 隙間のある雲 @ 不明な高さ

RJCB 050100Z VRB02KT 9999 FEW030 BKN/// 30/23 Q1006

RJCN/SHB  -  中標津

観測日時
2021-08-05 01:00 (UTC) (35分前)
気温
28
露点
24
湿数
4
相対湿度
78.9%
QNH
1005hPa
推定現地気圧
997.3hPa
推定海面気圧
1004.7hPa
体感温度
23.6
(無風時)
27.4
HI
31.9
気温前日比
+5
体感温度前日比
+5.1
HI前日比
+8.4
水平視程
>10000m
鉛直視程
データなし
雲底高度
Unknown
V/I
判定不可
RVR
No RVR data
卓越風
6kt from 220° (190° ~ 250°)
ガスト
No gust
降水
報告なし
その他の天気
報告なし
少しの雲 @ 1000ft AGL / 隙間のある雲 @ 不明な高さ

RJCN 050100Z 22006KT 190V250 9999 FEW010 BKN/// 28/24 Q1005

RJCT  -  帯広駐屯地/十勝飛行場

観測日時
2021-08-05 01:00 (UTC) (35分前)
気温
29
露点
22
湿数
7
相対湿度
66%
QNH
1008.1hPa
推定現地気圧
997.8hPa
推定海面気圧
1007.5hPa
体感温度
25.3
(無風時)
27.2
HI
32
気温前日比
-2
体感温度前日比
-1.1
HI前日比
-3.5
水平視程
>10000m
鉛直視程
データなし
雲底高度
No dense clouds
V/I
VMC (VFR)
RVR
No RVR data
卓越風
2kt from VRB
ガスト
No gust
降水
報告なし
その他の天気
報告なし
少しの(2/8) 積雲 @ 5000ft AGL

RJCT 050100Z VRB02KT 9999 FEW050 29/22 Q1008 RMK 2CU050 A2977

RJCH/HKD  -  函館

観測日時
2021-08-05 01:00 (UTC) (35分前)
気温
28
露点
25
湿数
3
相対湿度
83.8%
QNH
1008hPa
推定現地気圧
1002.5hPa
推定海面気圧
1007.7hPa
体感温度
23.6
(無風時)
27.7
HI
32.7
気温前日比
+3
体感温度前日比
+2.7
HI前日比
+6.7
水平視程
>10000m
鉛直視程
データなし
雲底高度
Unknown
V/I
判定不可
RVR
No RVR data
卓越風
7kt from 210°
ガスト
No gust
降水
報告なし
その他の天気
報告なし
少しの雲 @ 2000ft AGL / 散在する雲 @ 4000ft AGL / 隙間のある雲 @ 不明な高さ

RJCH 050100Z 21007KT 9999 FEW020 SCT040 BKN/// 28/25 Q1008

RJEO/OIR  -  奥尻

観測日時
2021-08-05 01:00 (UTC) (35分前)
気温
28
露点
26
湿数
2
相対湿度
88.9%
QNH
1007.8hPa
推定現地気圧
1002.0hPa
推定海面気圧
1007.6hPa
体感温度
23.9
(無風時)
28.1
HI
33.8
気温前日比
+2
体感温度前日比
+1.7
HI前日比
+6.7
水平視程
8000m
鉛直視程
データなし
雲底高度
500ft AGL
V/I
SVMC (SVFR)
RVR
No RVR data
卓越風
7kt from 200°
ガスト
No gust
降水
報告なし
その他の天気
報告なし
少しの雲 @ 200ft AGL / 散在する雲 @ 300ft AGL / 隙間のある雲 @ 500ft AGL

RJEO 050100Z 20007KT 8000 FEW002 SCT003 BKN005 28/26 Q1007 RMK A2976

5.9msec